sensor_id;sensor_type;location;lat;lon;timestamp;P1;durP1;ratioP1;P2;durP2;ratioP2
50337;SDS011;46221;51.178;5.900;2023-03-31T00:00:50;3.08;;;0.95;;
50337;SDS011;46221;51.178;5.900;2023-03-31T00:03:16;3.10;;;1.10;;
50337;SDS011;46221;51.178;5.900;2023-03-31T00:05:47;3.17;;;1.10;;
50337;SDS011;46221;51.178;5.900;2023-03-31T00:08:13;2.20;;;0.82;;
50337;SDS011;46221;51.178;5.900;2023-03-31T00:10:43;2.72;;;0.75;;
50337;SDS011;46221;51.178;5.900;2023-03-31T00:13:10;3.10;;;1.05;;
50337;SDS011;46221;51.178;5.900;2023-03-31T00:15:37;3.38;;;0.90;;
50337;SDS011;46221;51.178;5.900;2023-03-31T00:18:04;3.83;;;1.00;;
50337;SDS011;46221;51.178;5.900;2023-03-31T00:20:31;2.97;;;0.82;;
50337;SDS011;46221;51.178;5.900;2023-03-31T00:22:58;3.00;;;1.00;;
50337;SDS011;46221;51.178;5.900;2023-03-31T00:25:26;4.25;;;1.00;;
50337;SDS011;46221;51.178;5.900;2023-03-31T00:27:53;3.35;;;0.90;;
50337;SDS011;46221;51.178;5.900;2023-03-31T00:30:19;2.72;;;1.08;;
50337;SDS011;46221;51.178;5.900;2023-03-31T00:32:46;3.53;;;0.80;;
50337;SDS011;46221;51.178;5.900;2023-03-31T00:35:12;3.33;;;1.17;;
50337;SDS011;46221;51.178;5.900;2023-03-31T00:37:39;2.30;;;0.82;;
50337;SDS011;46221;51.178;5.900;2023-03-31T00:40:05;2.33;;;0.80;;
50337;SDS011;46221;51.178;5.900;2023-03-31T00:42:41;6.00;;;1.15;;
50337;SDS011;46221;51.178;5.900;2023-03-31T00:47:51;2.60;;;0.77;;
50337;SDS011;46221;51.178;5.900;2023-03-31T00:50:22;2.63;;;0.70;;
50337;SDS011;46221;51.178;5.900;2023-03-31T00:52:58;2.42;;;0.77;;
50337;SDS011;46221;51.178;5.900;2023-03-31T00:55:30;3.78;;;1.02;;
50337;SDS011;46221;51.178;5.900;2023-03-31T00:57:58;3.15;;;1.00;;
50337;SDS011;46221;51.178;5.900;2023-03-31T01:00:27;2.75;;;1.00;;
50337;SDS011;46221;51.178;5.900;2023-03-31T01:02:55;2.97;;;0.95;;
50337;SDS011;46221;51.178;5.900;2023-03-31T01:05:29;2.65;;;1.00;;
50337;SDS011;46221;51.178;5.900;2023-03-31T01:07:57;3.78;;;1.15;;
50337;SDS011;46221;51.178;5.900;2023-03-31T01:10:24;3.78;;;1.23;;
50337;SDS011;46221;51.178;5.900;2023-03-31T01:12:52;3.85;;;0.95;;
50337;SDS011;46221;51.178;5.900;2023-03-31T01:15:19;3.80;;;0.90;;
50337;SDS011;46221;51.178;5.900;2023-03-31T01:17:45;3.40;;;0.90;;
50337;SDS011;46221;51.178;5.900;2023-03-31T01:30:47;2.65;;;0.95;;
50337;SDS011;46221;51.178;5.900;2023-03-31T01:41:21;3.28;;;1.27;;
50337;SDS011;46221;51.178;5.900;2023-03-31T01:46:52;4.88;;;1.20;;
50337;SDS011;46221;51.178;5.900;2023-03-31T01:51:57;4.65;;;1.40;;
50337;SDS011;46221;51.178;5.900;2023-03-31T01:54:30;5.03;;;1.30;;
50337;SDS011;46221;51.178;5.900;2023-03-31T01:57:04;3.75;;;1.23;;
50337;SDS011;46221;51.178;5.900;2023-03-31T01:59:33;4.47;;;1.08;;
50337;SDS011;46221;51.178;5.900;2023-03-31T02:02:03;6.57;;;1.10;;
50337;SDS011;46221;51.178;5.900;2023-03-31T02:04:39;3.90;;;1.27;;
50337;SDS011;46221;51.178;5.900;2023-03-31T02:07:11;4.15;;;1.17;;
50337;SDS011;46221;51.178;5.900;2023-03-31T02:09:41;4.72;;;1.48;;
50337;SDS011;46221;51.178;5.900;2023-03-31T02:12:10;5.70;;;1.48;;
50337;SDS011;46221;51.178;5.900;2023-03-31T02:14:38;3.30;;;1.10;;
50337;SDS011;46221;51.178;5.900;2023-03-31T02:17:07;4.32;;;1.10;;
50337;SDS011;46221;51.178;5.900;2023-03-31T02:19:36;7.47;;;1.55;;
50337;SDS011;46221;51.178;5.900;2023-03-31T02:22:05;3.75;;;1.40;;
50337;SDS011;46221;51.178;5.900;2023-03-31T02:24:34;3.65;;;0.85;;
50337;SDS011;46221;51.178;5.900;2023-03-31T02:27:45;4.75;;;1.08;;
50337;SDS011;46221;51.178;5.900;2023-03-31T02:29:50;4.68;;;1.05;;
50337;SDS011;46221;51.178;5.900;2023-03-31T02:32:22;2.70;;;1.23;;
50337;SDS011;46221;51.178;5.900;2023-03-31T02:34:50;2.97;;;0.85;;
50337;SDS011;46221;51.178;5.900;2023-03-31T02:37:16;4.45;;;1.17;;
50337;SDS011;46221;51.178;5.900;2023-03-31T02:39:43;4.85;;;1.70;;
50337;SDS011;46221;51.178;5.900;2023-03-31T02:42:11;4.70;;;1.70;;
50337;SDS011;46221;51.178;5.900;2023-03-31T02:44:38;3.58;;;1.23;;
50337;SDS011;46221;51.178;5.900;2023-03-31T02:47:06;5.40;;;1.48;;
50337;SDS011;46221;51.178;5.900;2023-03-31T02:49:33;5.15;;;1.20;;
50337;SDS011;46221;51.178;5.900;2023-03-31T03:05:21;4.70;;;1.45;;
50337;SDS011;46221;51.178;5.900;2023-03-31T03:15:46;4.72;;;1.65;;
50337;SDS011;46221;51.178;5.900;2023-03-31T03:18:14;4.32;;;1.30;;
50337;SDS011;46221;51.178;5.900;2023-03-31T03:20:41;5.85;;;1.23;;
50337;SDS011;46221;51.178;5.900;2023-03-31T03:23:07;4.03;;;1.30;;
50337;SDS011;46221;51.178;5.900;2023-03-31T03:25:34;3.03;;;1.13;;
50337;SDS011;46221;51.178;5.900;2023-03-31T03:28:00;3.42;;;0.90;;
50337;SDS011;46221;51.178;5.900;2023-03-31T03:30:26;5.25;;;1.20;;
50337;SDS011;46221;51.178;5.900;2023-03-31T03:32:53;3.42;;;1.02;;
50337;SDS011;46221;51.178;5.900;2023-03-31T03:35:21;3.47;;;1.10;;
50337;SDS011;46221;51.178;5.900;2023-03-31T03:37:47;4.70;;;1.63;;
50337;SDS011;46221;51.178;5.900;2023-03-31T03:40:13;4.47;;;1.75;;
50337;SDS011;46221;51.178;5.900;2023-03-31T03:42:40;3.67;;;1.10;;
50337;SDS011;46221;51.178;5.900;2023-03-31T03:45:06;3.15;;;1.30;;
50337;SDS011;46221;51.178;5.900;2023-03-31T03:47:33;2.72;;;0.90;;
50337;SDS011;46221;51.178;5.900;2023-03-31T03:50:01;4.38;;;1.20;;
50337;SDS011;46221;51.178;5.900;2023-03-31T03:52:27;2.95;;;1.00;;
50337;SDS011;46221;51.178;5.900;2023-03-31T03:54:54;4.13;;;1.20;;
50337;SDS011;46221;51.178;5.900;2023-03-31T03:57:20;3.35;;;1.13;;
50337;SDS011;46221;51.178;5.900;2023-03-31T03:59:47;4.60;;;1.23;;
50337;SDS011;46221;51.178;5.900;2023-03-31T04:02:13;3.17;;;0.80;;
50337;SDS011;46221;51.178;5.900;2023-03-31T04:04:40;2.88;;;1.05;;
50337;SDS011;46221;51.178;5.900;2023-03-31T04:07:06;4.25;;;1.08;;
50337;SDS011;46221;51.178;5.900;2023-03-31T04:09:33;4.90;;;1.30;;
50337;SDS011;46221;51.178;5.900;2023-03-31T04:11:59;5.70;;;1.02;;
50337;SDS011;46221;51.178;5.900;2023-03-31T04:14:25;4.45;;;1.35;;
50337;SDS011;46221;51.178;5.900;2023-03-31T04:16:52;3.33;;;1.20;;
50337;SDS011;46221;51.178;5.900;2023-03-31T04:19:21;4.82;;;1.20;;
50337;SDS011;46221;51.178;5.900;2023-03-31T04:21:51;5.13;;;1.20;;
50337;SDS011;46221;51.178;5.900;2023-03-31T04:24:24;3.38;;;1.10;;
50337;SDS011;46221;51.178;5.900;2023-03-31T04:26:56;3.83;;;0.90;;
50337;SDS011;46221;51.178;5.900;2023-03-31T04:29:22;4.93;;;1.35;;
50337;SDS011;46221;51.178;5.900;2023-03-31T04:31:55;1.85;;;0.75;;
50337;SDS011;46221;51.178;5.900;2023-03-31T04:34:24;3.42;;;1.00;;
50337;SDS011;46221;51.178;5.900;2023-03-31T04:37:01;3.25;;;0.95;;
50337;SDS011;46221;51.178;5.900;2023-03-31T04:39:28;3.88;;;0.82;;
50337;SDS011;46221;51.178;5.900;2023-03-31T04:41:58;3.97;;;0.95;;
50337;SDS011;46221;51.178;5.900;2023-03-31T04:44:25;4.45;;;1.23;;
50337;SDS011;46221;51.178;5.900;2023-03-31T04:46:52;3.30;;;0.95;;
50337;SDS011;46221;51.178;5.900;2023-03-31T04:49:18;4.50;;;0.82;;
50337;SDS011;46221;51.178;5.900;2023-03-31T04:51:45;5.35;;;1.15;;
50337;SDS011;46221;51.178;5.900;2023-03-31T04:54:12;6.57;;;1.42;;
50337;SDS011;46221;51.178;5.900;2023-03-31T04:56:38;7.25;;;1.20;;
50337;SDS011;46221;51.178;5.900;2023-03-31T04:59:04;3.85;;;0.95;;
50337;SDS011;46221;51.178;5.900;2023-03-31T05:01:31;6.18;;;1.15;;
50337;SDS011;46221;51.178;5.900;2023-03-31T05:03:58;4.43;;;1.10;;
50337;SDS011;46221;51.178;5.900;2023-03-31T05:06:25;3.67;;;1.05;;
50337;SDS011;46221;51.178;5.900;2023-03-31T05:08:52;4.38;;;1.23;;
50337;SDS011;46221;51.178;5.900;2023-03-31T05:11:18;5.25;;;1.10;;
50337;SDS011;46221;51.178;5.900;2023-03-31T05:13:45;2.95;;;0.80;;
50337;SDS011;46221;51.178;5.900;2023-03-31T05:16:12;4.90;;;1.10;;
50337;SDS011;46221;51.178;5.900;2023-03-31T05:18:40;4.18;;;1.20;;
50337;SDS011;46221;51.178;5.900;2023-03-31T05:21:17;4.05;;;1.20;;
50337;SDS011;46221;51.178;5.900;2023-03-31T05:23:43;2.53;;;1.00;;
50337;SDS011;46221;51.178;5.900;2023-03-31T05:26:11;4.28;;;1.15;;
50337;SDS011;46221;51.178;5.900;2023-03-31T05:28:38;7.03;;;1.02;;
50337;SDS011;46221;51.178;5.900;2023-03-31T05:31:05;3.30;;;0.80;;
50337;SDS011;46221;51.178;5.900;2023-03-31T05:33:32;5.72;;;1.20;;
50337;SDS011;46221;51.178;5.900;2023-03-31T05:35:59;2.40;;;0.80;;
50337;SDS011;46221;51.178;5.900;2023-03-31T05:38:26;4.38;;;1.27;;
50337;SDS011;46221;51.178;5.900;2023-03-31T05:40:56;2.78;;;0.60;;
50337;SDS011;46221;51.178;5.900;2023-03-31T05:43:23;3.33;;;0.93;;
50337;SDS011;46221;51.178;5.900;2023-03-31T05:45:49;2.80;;;0.70;;
50337;SDS011;46221;51.178;5.900;2023-03-31T05:48:16;3.70;;;1.10;;
50337;SDS011;46221;51.178;5.900;2023-03-31T05:50:42;2.85;;;0.90;;
50337;SDS011;46221;51.178;5.900;2023-03-31T05:53:09;4.05;;;1.00;;
50337;SDS011;46221;51.178;5.900;2023-03-31T05:55:35;5.43;;;1.05;;
50337;SDS011;46221;51.178;5.900;2023-03-31T05:58:02;3.47;;;1.60;;
50337;SDS011;46221;51.178;5.900;2023-03-31T06:00:28;3.55;;;1.00;;
50337;SDS011;46221;51.178;5.900;2023-03-31T06:02:54;4.07;;;1.02;;
50337;SDS011;46221;51.178;5.900;2023-03-31T06:05:21;2.50;;;1.15;;
50337;SDS011;46221;51.178;5.900;2023-03-31T06:07:52;2.92;;;0.90;;
50337;SDS011;46221;51.178;5.900;2023-03-31T06:10:18;3.90;;;1.15;;
50337;SDS011;46221;51.178;5.900;2023-03-31T06:12:45;2.83;;;0.80;;
50337;SDS011;46221;51.178;5.900;2023-03-31T06:15:11;3.90;;;1.05;;
50337;SDS011;46221;51.178;5.900;2023-03-31T06:17:37;5.05;;;1.05;;
50337;SDS011;46221;51.178;5.900;2023-03-31T06:20:04;5.20;;;1.13;;
50337;SDS011;46221;51.178;5.900;2023-03-31T06:22:51;2.60;;;1.00;;
50337;SDS011;46221;51.178;5.900;2023-03-31T06:25:18;6.30;;;1.00;;
50337;SDS011;46221;51.178;5.900;2023-03-31T06:27:44;4.70;;;1.00;;
50337;SDS011;46221;51.178;5.900;2023-03-31T06:30:10;6.30;;;1.20;;
50337;SDS011;46221;51.178;5.900;2023-03-31T06:32:37;2.90;;;0.73;;
50337;SDS011;46221;51.178;5.900;2023-03-31T06:35:03;4.53;;;1.63;;
50337;SDS011;46221;51.178;5.900;2023-03-31T06:37:30;3.55;;;1.27;;
50337;SDS011;46221;51.178;5.900;2023-03-31T06:39:56;6.32;;;1.25;;
50337;SDS011;46221;51.178;5.900;2023-03-31T06:42:22;4.28;;;1.30;;
50337;SDS011;46221;51.178;5.900;2023-03-31T06:44:49;4.35;;;1.00;;
50337;SDS011;46221;51.178;5.900;2023-03-31T06:47:15;2.95;;;0.90;;
50337;SDS011;46221;51.178;5.900;2023-03-31T06:49:41;8.00;;;2.08;;
50337;SDS011;46221;51.178;5.900;2023-03-31T06:52:08;4.28;;;1.77;;
50337;SDS011;46221;51.178;5.900;2023-03-31T06:54:34;3.40;;;1.35;;
50337;SDS011;46221;51.178;5.900;2023-03-31T06:57:01;7.15;;;1.98;;
50337;SDS011;46221;51.178;5.900;2023-03-31T06:59:27;7.53;;;2.00;;
50337;SDS011;46221;51.178;5.900;2023-03-31T07:01:53;5.07;;;1.80;;
50337;SDS011;46221;51.178;5.900;2023-03-31T07:04:20;7.38;;;2.47;;
50337;SDS011;46221;51.178;5.900;2023-03-31T07:06:46;6.05;;;1.83;;
50337;SDS011;46221;51.178;5.900;2023-03-31T07:09:13;5.75;;;1.95;;
50337;SDS011;46221;51.178;5.900;2023-03-31T07:11:39;3.75;;;1.67;;
50337;SDS011;46221;51.178;5.900;2023-03-31T07:14:05;7.72;;;1.90;;
50337;SDS011;46221;51.178;5.900;2023-03-31T07:16:32;6.03;;;1.65;;
50337;SDS011;46221;51.178;5.900;2023-03-31T07:18:58;5.30;;;1.90;;
50337;SDS011;46221;51.178;5.900;2023-03-31T07:21:25;7.32;;;2.10;;
50337;SDS011;46221;51.178;5.900;2023-03-31T07:23:51;8.43;;;2.10;;
50337;SDS011;46221;51.178;5.900;2023-03-31T07:26:17;6.63;;;1.80;;
50337;SDS011;46221;51.178;5.900;2023-03-31T07:28:44;6.45;;;2.10;;
50337;SDS011;46221;51.178;5.900;2023-03-31T07:31:11;4.72;;;1.73;;
50337;SDS011;46221;51.178;5.900;2023-03-31T07:33:37;7.25;;;2.00;;
50337;SDS011;46221;51.178;5.900;2023-03-31T07:36:04;5.65;;;1.73;;
50337;SDS011;46221;51.178;5.900;2023-03-31T07:38:43;6.13;;;1.55;;
50337;SDS011;46221;51.178;5.900;2023-03-31T07:41:12;3.95;;;1.40;;
50337;SDS011;46221;51.178;5.900;2023-03-31T07:43:38;5.43;;;1.70;;
50337;SDS011;46221;51.178;5.900;2023-03-31T07:46:05;6.68;;;1.85;;
50337;SDS011;46221;51.178;5.900;2023-03-31T07:48:34;4.03;;;1.83;;
50337;SDS011;46221;51.178;5.900;2023-03-31T07:51:00;5.10;;;1.33;;
50337;SDS011;46221;51.178;5.900;2023-03-31T07:53:26;6.13;;;1.50;;
50337;SDS011;46221;51.178;5.900;2023-03-31T07:55:53;4.13;;;1.42;;
50337;SDS011;46221;51.178;5.900;2023-03-31T07:58:19;6.25;;;1.50;;
50337;SDS011;46221;51.178;5.900;2023-03-31T08:00:45;6.97;;;1.90;;
50337;SDS011;46221;51.178;5.900;2023-03-31T08:03:11;5.32;;;1.75;;
50337;SDS011;46221;51.178;5.900;2023-03-31T08:05:38;4.72;;;1.70;;
50337;SDS011;46221;51.178;5.900;2023-03-31T08:08:04;3.83;;;1.48;;
50337;SDS011;46221;51.178;5.900;2023-03-31T08:10:31;4.38;;;1.45;;
50337;SDS011;46221;51.178;5.900;2023-03-31T08:12:57;4.65;;;1.55;;
50337;SDS011;46221;51.178;5.900;2023-03-31T08:15:23;4.95;;;1.45;;
50337;SDS011;46221;51.178;5.900;2023-03-31T08:17:50;6.53;;;1.73;;
50337;SDS011;46221;51.178;5.900;2023-03-31T08:20:16;6.30;;;1.58;;
50337;SDS011;46221;51.178;5.900;2023-03-31T08:22:43;4.18;;;1.35;;
50337;SDS011;46221;51.178;5.900;2023-03-31T08:25:09;5.93;;;1.60;;
50337;SDS011;46221;51.178;5.900;2023-03-31T08:27:37;6.95;;;1.40;;
50337;SDS011;46221;51.178;5.900;2023-03-31T08:30:04;6.90;;;1.60;;
50337;SDS011;46221;51.178;5.900;2023-03-31T08:32:32;4.13;;;1.35;;
50337;SDS011;46221;51.178;5.900;2023-03-31T08:34:58;5.57;;;1.33;;
50337;SDS011;46221;51.178;5.900;2023-03-31T08:37:25;4.57;;;1.50;;
50337;SDS011;46221;51.178;5.900;2023-03-31T08:39:53;4.68;;;1.70;;
50337;SDS011;46221;51.178;5.900;2023-03-31T08:42:24;6.00;;;1.70;;
50337;SDS011;46221;51.178;5.900;2023-03-31T08:45:39;5.07;;;1.52;;
50337;SDS011;46221;51.178;5.900;2023-03-31T08:47:39;4.95;;;1.58;;
50337;SDS011;46221;51.178;5.900;2023-03-31T08:50:10;6.22;;;1.35;;
50337;SDS011;46221;51.178;5.900;2023-03-31T08:52:39;5.82;;;1.70;;
50337;SDS011;46221;51.178;5.900;2023-03-31T08:55:10;6.05;;;1.70;;
50337;SDS011;46221;51.178;5.900;2023-03-31T08:57:39;5.22;;;1.70;;
50337;SDS011;46221;51.178;5.900;2023-03-31T09:00:16;6.07;;;1.63;;
50337;SDS011;46221;51.178;5.900;2023-03-31T09:02:58;6.03;;;1.92;;
50337;SDS011;46221;51.178;5.900;2023-03-31T09:10:42;9.18;;;2.28;;
50337;SDS011;46221;51.178;5.900;2023-03-31T09:18:36;8.02;;;1.75;;
50337;SDS011;46221;51.178;5.900;2023-03-31T09:21:10;7.07;;;2.45;;
50337;SDS011;46221;51.178;5.900;2023-03-31T09:23:43;6.53;;;2.80;;
50337;SDS011;46221;51.178;5.900;2023-03-31T09:26:17;8.52;;;2.05;;
50337;SDS011;46221;51.178;5.900;2023-03-31T09:28:46;6.65;;;2.35;;
50337;SDS011;46221;51.178;5.900;2023-03-31T09:31:13;10.65;;;2.58;;
50337;SDS011;46221;51.178;5.900;2023-03-31T09:33:41;8.85;;;2.78;;
50337;SDS011;46221;51.178;5.900;2023-03-31T09:36:13;6.32;;;2.20;;
50337;SDS011;46221;51.178;5.900;2023-03-31T09:38:41;11.23;;;2.97;;
50337;SDS011;46221;51.178;5.900;2023-03-31T09:41:08;8.38;;;2.22;;
50337;SDS011;46221;51.178;5.900;2023-03-31T09:43:34;8.88;;;2.33;;
50337;SDS011;46221;51.178;5.900;2023-03-31T09:46:01;9.18;;;2.60;;
50337;SDS011;46221;51.178;5.900;2023-03-31T09:48:39;9.15;;;2.47;;
50337;SDS011;46221;51.178;5.900;2023-03-31T09:51:12;8.52;;;2.25;;
50337;SDS011;46221;51.178;5.900;2023-03-31T09:56:43;8.10;;;2.70;;
50337;SDS011;46221;51.178;5.900;2023-03-31T09:59:13;11.30;;;2.53;;
50337;SDS011;46221;51.178;5.900;2023-03-31T10:01:39;7.40;;;2.33;;
50337;SDS011;46221;51.178;5.900;2023-03-31T10:04:07;8.05;;;2.20;;
50337;SDS011;46221;51.178;5.900;2023-03-31T10:06:34;9.13;;;2.40;;
50337;SDS011;46221;51.178;5.900;2023-03-31T10:09:04;7.65;;;2.60;;
50337;SDS011;46221;51.178;5.900;2023-03-31T10:11:31;7.82;;;2.20;;
50337;SDS011;46221;51.178;5.900;2023-03-31T10:13:58;6.07;;;2.20;;
50337;SDS011;46221;51.178;5.900;2023-03-31T10:16:28;7.57;;;2.10;;
50337;SDS011;46221;51.178;5.900;2023-03-31T10:19:10;5.07;;;1.92;;
50337;SDS011;46221;51.178;5.900;2023-03-31T10:21:36;7.45;;;2.10;;
50337;SDS011;46221;51.178;5.900;2023-03-31T10:24:07;9.27;;;2.25;;
50337;SDS011;46221;51.178;5.900;2023-03-31T10:26:34;8.25;;;1.90;;
50337;SDS011;46221;51.178;5.900;2023-03-31T10:29:01;6.13;;;2.20;;
50337;SDS011;46221;51.178;5.900;2023-03-31T10:31:36;6.25;;;1.50;;
50337;SDS011;46221;51.178;5.900;2023-03-31T10:34:06;6.63;;;2.05;;
50337;SDS011;46221;51.178;5.900;2023-03-31T10:36:33;6.35;;;2.53;;
50337;SDS011;46221;51.178;5.900;2023-03-31T10:39:03;7.60;;;1.60;;
50337;SDS011;46221;51.178;5.900;2023-03-31T10:41:30;7.90;;;1.65;;
50337;SDS011;46221;51.178;5.900;2023-03-31T10:43:57;5.20;;;1.50;;
50337;SDS011;46221;51.178;5.900;2023-03-31T10:49:23;5.30;;;1.67;;
50337;SDS011;46221;51.178;5.900;2023-03-31T10:51:53;6.20;;;1.55;;
50337;SDS011;46221;51.178;5.900;2023-03-31T10:54:21;6.65;;;1.65;;
50337;SDS011;46221;51.178;5.900;2023-03-31T10:56:51;5.03;;;1.58;;
50337;SDS011;46221;51.178;5.900;2023-03-31T11:07:07;5.93;;;1.75;;
50337;SDS011;46221;51.178;5.900;2023-03-31T11:09:42;6.07;;;1.52;;
50337;SDS011;46221;51.178;5.900;2023-03-31T11:12:23;7.38;;;1.95;;
50337;SDS011;46221;51.178;5.900;2023-03-31T11:25:26;7.60;;;1.92;;
50337;SDS011;46221;51.178;5.900;2023-03-31T11:30:26;6.20;;;1.85;;
50337;SDS011;46221;51.178;5.900;2023-03-31T11:40:52;9.02;;;2.08;;
50337;SDS011;46221;51.178;5.900;2023-03-31T11:43:35;8.60;;;2.42;;
50337;SDS011;46221;51.178;5.900;2023-03-31T11:48:50;6.32;;;2.17;;
50337;SDS011;46221;51.178;5.900;2023-03-31T11:51:22;10.18;;;2.35;;
50337;SDS011;46221;51.178;5.900;2023-03-31T11:53:51;7.22;;;1.73;;
50337;SDS011;46221;51.178;5.900;2023-03-31T11:56:18;6.38;;;2.55;;
50337;SDS011;46221;51.178;5.900;2023-03-31T11:58:47;7.28;;;1.90;;
50337;SDS011;46221;51.178;5.900;2023-03-31T12:01:18;8.32;;;2.10;;
50337;SDS011;46221;51.178;5.900;2023-03-31T12:03:56;5.05;;;1.73;;
50337;SDS011;46221;51.178;5.900;2023-03-31T12:06:26;5.90;;;2.17;;
50337;SDS011;46221;51.178;5.900;2023-03-31T12:09:16;6.43;;;2.28;;
50337;SDS011;46221;51.178;5.900;2023-03-31T12:16:42;7.45;;;2.00;;
50337;SDS011;46221;51.178;5.900;2023-03-31T12:21:46;6.47;;;2.22;;
50337;SDS011;46221;51.178;5.900;2023-03-31T12:24:13;7.03;;;1.98;;
50337;SDS011;46221;51.178;5.900;2023-03-31T12:26:52;7.32;;;1.90;;
50337;SDS011;46221;51.178;5.900;2023-03-31T12:31:49;5.78;;;2.08;;
50337;SDS011;46221;51.178;5.900;2023-03-31T12:34:16;6.43;;;2.20;;
50337;SDS011;46221;51.178;5.900;2023-03-31T13:02:30;6.32;;;1.80;;
50337;SDS011;46221;51.178;5.900;2023-03-31T13:05:33;5.63;;;1.30;;
50337;SDS011;46221;51.178;5.900;2023-03-31T13:12:39;6.03;;;1.80;;
50337;SDS011;46221;51.178;5.900;2023-03-31T13:15:11;5.97;;;1.83;;
50337;SDS011;46221;51.178;5.900;2023-03-31T13:17:38;5.25;;;1.40;;
50337;SDS011;46221;51.178;5.900;2023-03-31T13:20:39;6.38;;;1.50;;
50337;SDS011;46221;51.178;5.900;2023-03-31T13:28:07;5.57;;;1.48;;
50337;SDS011;46221;51.178;5.900;2023-03-31T13:33:05;8.18;;;1.83;;
50337;SDS011;46221;51.178;5.900;2023-03-31T13:35:35;5.18;;;1.60;;
50337;SDS011;46221;51.178;5.900;2023-03-31T13:38:13;5.60;;;1.58;;
50337;SDS011;46221;51.178;5.900;2023-03-31T13:40:55;5.00;;;1.30;;
50337;SDS011;46221;51.178;5.900;2023-03-31T13:48:33;4.57;;;1.40;;
50337;SDS011;46221;51.178;5.900;2023-03-31T13:53:47;9.93;;;1.67;;
50337;SDS011;46221;51.178;5.900;2023-03-31T13:59:14;6.97;;;1.45;;
50337;SDS011;46221;51.178;5.900;2023-03-31T14:10:24;5.10;;;1.50;;
50337;SDS011;46221;51.178;5.900;2023-03-31T14:13:03;7.15;;;1.75;;
50337;SDS011;46221;51.178;5.900;2023-03-31T14:15:29;7.63;;;1.70;;
50337;SDS011;46221;51.178;5.900;2023-03-31T14:18:09;4.97;;;1.23;;
50337;SDS011;46221;51.178;5.900;2023-03-31T14:20:39;6.03;;;1.63;;
50337;SDS011;46221;51.178;5.900;2023-03-31T14:25:52;5.53;;;1.40;;
50337;SDS011;46221;51.178;5.900;2023-03-31T14:39:02;4.85;;;1.50;;
50337;SDS011;46221;51.178;5.900;2023-03-31T14:41:29;4.47;;;1.45;;
50337;SDS011;46221;51.178;5.900;2023-03-31T14:43:57;4.00;;;1.25;;
50337;SDS011;46221;51.178;5.900;2023-03-31T14:46:25;6.65;;;1.10;;
50337;SDS011;46221;51.178;5.900;2023-03-31T14:48:51;4.55;;;1.35;;
50337;SDS011;46221;51.178;5.900;2023-03-31T14:51:28;5.82;;;1.50;;
50337;SDS011;46221;51.178;5.900;2023-03-31T14:53:58;5.20;;;1.70;;
50337;SDS011;46221;51.178;5.900;2023-03-31T14:56:36;4.82;;;1.38;;
50337;SDS011;46221;51.178;5.900;2023-03-31T14:59:03;4.13;;;1.25;;
50337;SDS011;46221;51.178;5.900;2023-03-31T15:01:32;4.75;;;1.50;;
50337;SDS011;46221;51.178;5.900;2023-03-31T15:04:09;4.22;;;1.23;;
50337;SDS011;46221;51.178;5.900;2023-03-31T15:06:45;4.35;;;1.42;;
50337;SDS011;46221;51.178;5.900;2023-03-31T15:09:15;5.15;;;1.00;;
50337;SDS011;46221;51.178;5.900;2023-03-31T15:11:45;4.15;;;0.93;;
50337;SDS011;46221;51.178;5.900;2023-03-31T15:17:23;3.92;;;1.10;;
50337;SDS011;46221;51.178;5.900;2023-03-31T15:19:52;4.57;;;1.15;;
50337;SDS011;46221;51.178;5.900;2023-03-31T15:22:18;3.80;;;1.05;;
50337;SDS011;46221;51.178;5.900;2023-03-31T15:24:46;4.25;;;1.05;;
50337;SDS011;46221;51.178;5.900;2023-03-31T15:27:14;3.28;;;0.90;;
50337;SDS011;46221;51.178;5.900;2023-03-31T15:29:55;3.10;;;1.13;;
50337;SDS011;46221;51.178;5.900;2023-03-31T15:32:24;2.42;;;0.90;;
50337;SDS011;46221;51.178;5.900;2023-03-31T15:34:52;4.18;;;0.98;;
50337;SDS011;46221;51.178;5.900;2023-03-31T15:37:20;2.35;;;0.77;;
50337;SDS011;46221;51.178;5.900;2023-03-31T15:39:47;2.42;;;0.70;;
50337;SDS011;46221;51.178;5.900;2023-03-31T15:42:14;2.00;;;0.50;;
50337;SDS011;46221;51.178;5.900;2023-03-31T15:44:44;3.30;;;0.80;;
50337;SDS011;46221;51.178;5.900;2023-03-31T15:50:24;3.45;;;1.15;;
50337;SDS011;46221;51.178;5.900;2023-03-31T15:54:51;3.05;;;0.70;;
50337;SDS011;46221;51.178;5.900;2023-03-31T15:57:18;3.08;;;0.63;;
50337;SDS011;46221;51.178;5.900;2023-03-31T15:59:46;2.28;;;0.80;;
50337;SDS011;46221;51.178;5.900;2023-03-31T16:04:48;4.45;;;0.57;;
50337;SDS011;46221;51.178;5.900;2023-03-31T16:07:17;2.10;;;0.80;;
50337;SDS011;46221;51.178;5.900;2023-03-31T16:09:50;2.65;;;0.95;;
50337;SDS011;46221;51.178;5.900;2023-03-31T16:12:31;2.45;;;0.80;;
50337;SDS011;46221;51.178;5.900;2023-03-31T16:15:02;2.97;;;0.70;;
50337;SDS011;46221;51.178;5.900;2023-03-31T16:17:40;1.95;;;0.65;;
50337;SDS011;46221;51.178;5.900;2023-03-31T16:20:18;2.00;;;0.70;;
50337;SDS011;46221;51.178;5.900;2023-03-31T16:22:46;2.78;;;0.73;;
50337;SDS011;46221;51.178;5.900;2023-03-31T16:25:16;2.28;;;1.00;;
50337;SDS011;46221;51.178;5.900;2023-03-31T16:27:47;2.42;;;0.60;;
50337;SDS011;46221;51.178;5.900;2023-03-31T16:30:16;4.93;;;0.80;;
50337;SDS011;46221;51.178;5.900;2023-03-31T16:33:00;2.10;;;0.82;;
50337;SDS011;46221;51.178;5.900;2023-03-31T16:38:22;3.13;;;0.90;;
50337;SDS011;46221;51.178;5.900;2023-03-31T16:40:49;4.10;;;1.05;;
50337;SDS011;46221;51.178;5.900;2023-03-31T16:45:50;1.92;;;0.70;;
50337;SDS011;46221;51.178;5.900;2023-03-31T16:48:17;2.70;;;0.90;;
50337;SDS011;46221;51.178;5.900;2023-03-31T16:50:44;2.28;;;0.73;;
50337;SDS011;46221;51.178;5.900;2023-03-31T16:53:16;1.58;;;0.47;;
50337;SDS011;46221;51.178;5.900;2023-03-31T16:55:44;2.90;;;0.57;;
50337;SDS011;46221;51.178;5.900;2023-03-31T16:58:14;2.15;;;0.77;;
50337;SDS011;46221;51.178;5.900;2023-03-31T17:00:40;2.13;;;0.70;;
50337;SDS011;46221;51.178;5.900;2023-03-31T17:03:12;1.65;;;0.60;;
50337;SDS011;46221;51.178;5.900;2023-03-31T17:05:41;3.50;;;0.70;;
50337;SDS011;46221;51.178;5.900;2023-03-31T17:08:10;2.60;;;0.73;;
50337;SDS011;46221;51.178;5.900;2023-03-31T17:10:38;3.05;;;0.80;;
50337;SDS011;46221;51.178;5.900;2023-03-31T17:13:06;3.83;;;0.90;;
50337;SDS011;46221;51.178;5.900;2023-03-31T17:15:33;2.50;;;0.95;;
50337;SDS011;46221;51.178;5.900;2023-03-31T17:18:01;3.72;;;0.80;;
50337;SDS011;46221;51.178;5.900;2023-03-31T17:20:29;4.10;;;0.90;;
50337;SDS011;46221;51.178;5.900;2023-03-31T17:22:56;4.85;;;0.90;;
50337;SDS011;46221;51.178;5.900;2023-03-31T17:25:22;2.95;;;0.65;;
50337;SDS011;46221;51.178;5.900;2023-03-31T17:27:49;3.72;;;1.10;;
50337;SDS011;46221;51.178;5.900;2023-03-31T17:30:15;3.60;;;1.20;;
50337;SDS011;46221;51.178;5.900;2023-03-31T17:32:41;4.72;;;0.82;;
50337;SDS011;46221;51.178;5.900;2023-03-31T17:35:08;3.38;;;1.13;;
50337;SDS011;46221;51.178;5.900;2023-03-31T17:37:36;2.78;;;0.77;;
50337;SDS011;46221;51.178;5.900;2023-03-31T17:40:04;4.95;;;1.33;;
50337;SDS011;46221;51.178;5.900;2023-03-31T17:42:31;2.50;;;0.90;;
50337;SDS011;46221;51.178;5.900;2023-03-31T17:44:57;4.60;;;0.93;;
50337;SDS011;46221;51.178;5.900;2023-03-31T17:47:24;3.58;;;0.70;;
50337;SDS011;46221;51.178;5.900;2023-03-31T17:49:50;3.15;;;0.93;;
50337;SDS011;46221;51.178;5.900;2023-03-31T17:52:17;3.35;;;0.90;;
50337;SDS011;46221;51.178;5.900;2023-03-31T17:54:43;4.00;;;1.15;;
50337;SDS011;46221;51.178;5.900;2023-03-31T17:57:09;3.97;;;1.02;;
50337;SDS011;46221;51.178;5.900;2023-03-31T17:59:36;5.55;;;1.10;;
50337;SDS011;46221;51.178;5.900;2023-03-31T18:02:04;3.22;;;0.80;;
50337;SDS011;46221;51.178;5.900;2023-03-31T18:04:30;3.53;;;0.77;;
50337;SDS011;46221;51.178;5.900;2023-03-31T18:06:57;1.85;;;0.70;;
50337;SDS011;46221;51.178;5.900;2023-03-31T18:09:23;3.40;;;0.85;;
50337;SDS011;46221;51.178;5.900;2023-03-31T18:11:50;3.25;;;0.65;;